createdAt,value
2022-10-04T00:01:45.453Z,94.40
2022-10-04T00:04:18.459Z,94.48
2022-10-04T00:06:54.883Z,94.66
2022-10-04T00:09:29.450Z,95.05
2022-10-04T00:11:56.986Z,94.02
2022-10-04T00:14:37.413Z,95.35
2022-10-04T00:17:12.359Z,95.59
2022-10-04T00:19:38.631Z,95.14
2022-10-04T00:22:08.269Z,95.27
2022-10-04T00:24:36.812Z,95.18
2022-10-04T00:27:29.753Z,96.80
2022-10-04T00:30:02.349Z,95.92
2022-10-04T00:32:31.831Z,95.25
2022-10-04T00:34:59.738Z,95.28
2022-10-04T00:37:27.550Z,94.89
2022-10-04T00:40:05.968Z,95.69
2022-10-04T00:42:50.493Z,96.02
2022-10-04T00:45:19.904Z,94.85
2022-10-04T00:47:46.181Z,94.47
2022-10-04T00:50:27.055Z,95.60
2022-10-04T00:52:57.532Z,94.24
2022-10-04T00:55:34.554Z,95.12
2022-10-04T00:58:04.942Z,94.61
2022-10-04T01:00:35.291Z,94.42
2022-10-04T01:03:13.276Z,95.37
2022-10-04T01:05:44.466Z,94.52
2022-10-04T01:08:14.774Z,94.62
2022-10-04T01:10:47.442Z,95.21
2022-10-04T01:13:19.638Z,94.42
2022-10-04T01:16:11.951Z,95.94
2022-10-04T01:18:38.467Z,94.45
2022-10-04T01:21:09.061Z,95.08
2022-10-04T01:23:46.648Z,95.46
2022-10-04T01:26:34.497Z,96.27
2022-10-04T01:29:09.530Z,95.74
2022-10-04T01:31:43.007Z,95.55
2022-10-04T01:34:13.843Z,94.87
2022-10-04T01:36:40.795Z,94.73
2022-10-04T01:39:07.872Z,94.45
2022-10-04T01:41:44.621Z,95.06
2022-10-04T01:44:20.045Z,94.53
2022-10-04T01:46:47.973Z,94.30
2022-10-04T01:49:20.002Z,94.63
2022-10-04T01:52:03.507Z,95.09
2022-10-04T01:54:43.644Z,95.13
2022-10-04T01:57:17.693Z,94.62
2022-10-04T01:59:46.758Z,94.50
2022-10-04T02:02:24.781Z,95.57
2022-10-04T02:04:56.025Z,95.08
2022-10-04T02:07:23.344Z,94.90
2022-10-04T02:09:56.108Z,95.48
2022-10-04T02:12:22.777Z,94.97
2022-10-04T02:14:53.339Z,95.42
2022-10-04T02:17:28.236Z,95.64
2022-10-04T02:19:55.498Z,95.52
2022-10-04T02:22:25.552Z,95.40
2022-10-04T02:24:54.863Z,95.82
2022-10-04T02:27:26.832Z,96.00
2022-10-04T02:30:00.627Z,96.14
2022-10-04T02:32:48.876Z,95.68
2022-10-04T02:35:16.310Z,95.30
2022-10-04T02:37:43.547Z,95.42
2022-10-04T02:40:14.178Z,95.89
2022-10-04T02:43:00.336Z,95.59
2022-10-04T02:46:02.564Z,95.80
2022-10-04T02:48:37.529Z,95.80
2022-10-04T02:51:18.151Z,95.95
2022-10-04T02:54:03.395Z,95.96
2022-10-04T02:56:31.008Z,95.13
2022-10-04T02:59:02.242Z,95.75
2022-10-04T03:01:49.702Z,96.41
2022-10-04T03:04:21.018Z,95.54
2022-10-04T03:06:47.583Z,95.51
2022-10-04T03:09:15.239Z,95.64
2022-10-04T03:11:46.803Z,95.82
2022-10-04T03:14:25.468Z,95.61
2022-10-04T03:16:55.704Z,95.41
2022-10-04T03:19:23.733Z,96.22
2022-10-04T03:21:53.017Z,94.86
2022-10-04T03:24:24.862Z,95.20
2022-10-04T03:26:56.997Z,95.61
2022-10-04T03:29:27.493Z,95.18
2022-10-04T03:31:58.908Z,95.21
2022-10-04T03:34:32.038Z,95.47
2022-10-04T03:37:00.880Z,95.20
2022-10-04T03:39:46.160Z,96.50
2022-10-04T03:42:15.845Z,95.36
2022-10-04T03:44:45.449Z,95.18
2022-10-04T03:47:15.686Z,95.20
2022-10-04T03:49:46.198Z,95.91
2022-10-04T03:52:22.240Z,94.72
2022-10-04T03:54:52.301Z,94.77
2022-10-04T03:57:19.123Z,94.65
2022-10-04T03:59:45.775Z,94.84
2022-10-04T04:02:31.616Z,96.01
2022-10-04T04:05:20.264Z,96.08
2022-10-04T04:07:46.562Z,94.77
2022-10-04T04:10:19.049Z,94.98
2022-10-04T04:13:01.541Z,95.15
2022-10-04T04:15:30.530Z,94.89
2022-10-04T04:18:02.528Z,95.01
2022-10-04T04:20:34.070Z,95.00
2022-10-04T04:23:28.810Z,96.34
2022-10-04T04:25:59.847Z,94.79
2022-10-04T04:28:28.214Z,94.97
2022-10-04T04:31:06.344Z,95.79
2022-10-04T04:33:47.191Z,96.00
2022-10-04T04:36:15.830Z,95.32
2022-10-04T04:39:02.087Z,95.27
2022-10-04T04:41:33.786Z,95.26
2022-10-04T04:44:00.339Z,95.27
2022-10-04T04:46:28.974Z,95.44
2022-10-04T04:49:05.519Z,96.03
2022-10-04T04:51:33.242Z,95.08
2022-10-04T04:54:02.703Z,95.18
2022-10-04T04:56:30.575Z,95.18
2022-10-04T04:59:02.428Z,95.33
2022-10-04T05:01:31.589Z,94.83
2022-10-04T05:04:12.464Z,95.98
2022-10-04T05:06:44.230Z,95.28
2022-10-04T05:09:30.684Z,96.29
2022-10-04T05:12:07.714Z,95.25
2022-10-04T05:14:38.025Z,94.86
2022-10-04T05:17:05.559Z,95.86
2022-10-04T05:19:39.562Z,95.32
2022-10-04T05:22:11.321Z,95.15
2022-10-04T05:24:44.920Z,95.45
2022-10-04T05:27:30.521Z,95.86
2022-10-04T05:30:30.621Z,96.38
2022-10-04T05:33:03.124Z,95.42
2022-10-04T05:35:38.463Z,95.20
2022-10-04T05:38:17.305Z,96.20
2022-10-04T05:41:08.067Z,96.35
2022-10-04T05:43:45.600Z,95.61
2022-10-04T05:46:23.502Z,96.08
2022-10-04T05:49:19.203Z,95.50
2022-10-04T05:51:54.748Z,95.97
2022-10-04T05:54:26.672Z,95.83
2022-10-04T05:57:05.185Z,96.09
2022-10-04T06:00:07.352Z,96.99
2022-10-04T06:03:04.866Z,96.50
2022-10-04T06:06:00.358Z,95.78
2022-10-04T06:08:31.326Z,95.03
2022-10-04T06:11:29.543Z,96.04
2022-10-04T06:14:23.455Z,94.50
2022-10-04T06:17:04.732Z,94.19
2022-10-04T06:19:41.157Z,94.77
2022-10-04T06:22:22.772Z,95.06
2022-10-04T06:25:00.257Z,94.80
2022-10-04T06:27:30.986Z,93.94
2022-10-04T06:30:11.785Z,95.11
2022-10-04T06:33:14.094Z,95.33
2022-10-04T06:36:11.508Z,95.42
2022-10-04T06:39:05.019Z,96.16
2022-10-04T06:41:43.325Z,94.87
2022-10-04T06:44:12.714Z,95.41
2022-10-04T06:46:56.799Z,96.09
2022-10-04T06:49:38.959Z,96.16
2022-10-04T06:52:27.295Z,96.95
2022-10-04T06:55:23.143Z,97.22
2022-10-04T06:58:08.594Z,97.56
2022-10-04T07:01:11.224Z,97.69
2022-10-04T07:03:51.182Z,97.11
2022-10-04T07:06:25.807Z,97.41
2022-10-04T07:08:59.528Z,97.08
2022-10-04T07:11:30.210Z,96.97
2022-10-04T07:14:02.866Z,97.23
2022-10-04T07:16:39.044Z,97.47
2022-10-04T07:19:24.145Z,97.57
2022-10-04T07:22:25.839Z,97.78
2022-10-04T07:25:30.658Z,97.69
2022-10-04T07:28:28.001Z,96.15
2022-10-04T07:31:03.950Z,94.57
2022-10-04T07:33:34.993Z,94.04
2022-10-04T07:36:12.466Z,93.85
2022-10-04T07:38:49.043Z,92.43
2022-10-04T07:41:37.243Z,91.31
2022-10-04T07:44:16.028Z,90.36
2022-10-04T07:46:42.329Z,89.80
2022-10-04T07:49:17.413Z,91.00
2022-10-04T07:52:05.402Z,89.87
2022-10-04T07:54:47.376Z,90.36
2022-10-04T07:57:27.542Z,89.66
2022-10-04T08:00:16.693Z,89.11
2022-10-04T08:02:57.428Z,87.16
2022-10-04T08:05:37.897Z,85.78
2022-10-04T08:08:32.263Z,86.10
2022-10-04T08:11:17.234Z,85.24
2022-10-04T08:14:26.987Z,84.77
2022-10-04T08:16:58.188Z,84.09
2022-10-04T08:19:35.945Z,83.94
2022-10-04T08:22:04.408Z,82.41
2022-10-04T08:25:21.773Z,82.79
2022-10-04T08:28:38.025Z,82.22
2022-10-04T08:31:26.884Z,82.08
2022-10-04T08:34:18.154Z,81.57
2022-10-04T08:37:03.142Z,82.46
2022-10-04T08:39:54.475Z,81.52
2022-10-04T08:42:48.680Z,81.65
2022-10-04T08:45:38.095Z,80.95
2022-10-04T08:48:22.703Z,80.59
2022-10-04T08:51:09.533Z,79.81
2022-10-04T08:53:52.481Z,79.00
2022-10-04T08:56:40.915Z,79.34
2022-10-04T08:59:13.371Z,77.99
2022-10-04T09:02:00.126Z,77.93
2022-10-04T09:04:41.853Z,76.55
2022-10-04T09:07:20.581Z,77.66
2022-10-04T09:10:14.936Z,77.33
2022-10-04T09:12:56.151Z,76.06
2022-10-04T09:15:44.795Z,75.16
2022-10-04T09:18:22.516Z,74.58
2022-10-04T09:20:58.954Z,73.54
2022-10-04T09:23:31.469Z,73.95
2022-10-04T09:26:20.054Z,74.25
2022-10-04T09:29:04.917Z,73.90
2022-10-04T09:31:59.459Z,73.12
2022-10-04T09:34:57.816Z,73.11
2022-10-04T09:38:02.779Z,72.94
2022-10-04T09:40:43.269Z,73.14
2022-10-04T09:43:50.222Z,73.02
2022-10-04T09:46:56.192Z,72.43
2022-10-04T09:49:32.583Z,71.83
2022-10-04T09:52:23.245Z,72.14
2022-10-04T09:55:24.589Z,71.71
2022-10-04T09:58:29.543Z,72.16
2022-10-04T10:01:02.176Z,71.41
2022-10-04T10:03:50.639Z,71.08
2022-10-04T10:06:35.758Z,71.04
2022-10-04T10:09:11.136Z,71.59
2022-10-04T10:12:08.460Z,70.45
2022-10-04T10:14:37.823Z,68.75
2022-10-04T10:17:17.609Z,68.69
2022-10-04T10:20:00.291Z,68.71
2022-10-04T10:22:42.480Z,68.35
2022-10-04T10:25:27.291Z,68.32
2022-10-04T10:28:15.360Z,69.04
2022-10-04T10:31:09.655Z,69.17
2022-10-04T10:34:04.915Z,68.54
2022-10-04T10:36:40.037Z,67.28
2022-10-04T10:39:27.367Z,64.04
2022-10-04T10:42:32.518Z,61.83
2022-10-04T10:45:21.120Z,60.03
2022-10-04T10:48:21.681Z,59.56
2022-10-04T10:51:00.634Z,59.72
2022-10-04T10:53:51.507Z,58.61
2022-10-04T10:56:36.657Z,57.22
2022-10-04T10:59:40.113Z,57.43
2022-10-04T11:02:48.288Z,53.49
2022-10-04T11:05:25.839Z,54.01
2022-10-04T11:08:29.860Z,53.46
2022-10-04T11:11:44.137Z,53.25
2022-10-04T11:14:35.055Z,53.63
2022-10-04T11:17:23.725Z,51.40
2022-10-04T11:20:15.503Z,51.16
2022-10-04T11:23:07.262Z,52.87
2022-10-04T11:25:52.370Z,52.98
2022-10-04T11:28:40.639Z,53.89
2022-10-04T11:31:29.119Z,52.88
2022-10-04T11:34:35.352Z,50.35
2022-10-04T11:37:08.154Z,51.86
2022-10-04T11:40:06.480Z,50.42
2022-10-04T11:42:45.007Z,51.46
2022-10-04T11:45:38.905Z,49.77
2022-10-04T11:48:08.014Z,50.18
2022-10-04T11:50:57.062Z,49.83
2022-10-04T11:53:48.006Z,48.65
2022-10-04T11:56:29.727Z,49.13
2022-10-04T11:59:11.405Z,48.88
2022-10-04T12:01:59.954Z,48.46
2022-10-04T12:04:47.502Z,46.91
2022-10-04T12:07:38.163Z,46.93
2022-10-04T12:10:13.453Z,46.95
2022-10-04T12:12:49.802Z,47.03
2022-10-04T12:15:34.831Z,49.12
2022-10-04T12:18:07.534Z,47.57
2022-10-04T12:21:18.633Z,47.87
2022-10-04T12:23:54.014Z,48.10
2022-10-04T12:26:49.438Z,47.17
2022-10-04T12:29:57.174Z,47.17
2022-10-04T12:32:38.397Z,46.54
2022-10-04T12:35:32.171Z,46.30
2022-10-04T12:38:16.709Z,46.20
2022-10-04T12:40:43.120Z,45.88
2022-10-04T12:43:09.962Z,45.80
2022-10-04T12:45:57.100Z,45.44
2022-10-04T12:48:37.056Z,46.32
2022-10-04T12:51:18.236Z,46.79
2022-10-04T12:53:56.709Z,46.32
2022-10-04T12:56:37.245Z,47.30
2022-10-04T12:59:15.347Z,45.59
2022-10-04T13:02:03.784Z,46.62
2022-10-04T13:04:47.190Z,45.95
2022-10-04T13:07:28.590Z,45.63
2022-10-04T13:10:32.833Z,46.15
2022-10-04T13:13:31.058Z,45.08
2022-10-04T13:19:21.288Z,46.39
2022-10-04T13:22:00.408Z,46.08
2022-10-04T13:24:56.796Z,45.83
2022-10-04T13:27:28.849Z,45.63
2022-10-04T13:30:02.273Z,46.41
2022-10-04T13:32:39.654Z,44.84
2022-10-04T13:35:13.743Z,45.73
2022-10-04T13:38:04.739Z,46.03
2022-10-04T13:40:55.549Z,44.61
2022-10-04T13:43:33.922Z,45.00
2022-10-04T13:46:19.943Z,45.76
2022-10-04T13:49:13.709Z,46.04
2022-10-04T13:52:19.507Z,44.35
2022-10-04T13:55:35.534Z,44.78
2022-10-04T13:58:16.823Z,45.35
2022-10-04T14:01:17.160Z,45.53
2022-10-04T14:04:08.166Z,45.46
2022-10-04T14:06:43.655Z,45.44
2022-10-04T14:09:45.642Z,45.68
2022-10-04T14:12:44.836Z,45.54
2022-10-04T14:15:38.457Z,45.40
2022-10-04T14:18:35.592Z,45.64
2022-10-04T14:21:18.962Z,44.30
2022-10-04T14:24:27.026Z,43.88
2022-10-04T14:27:30.546Z,44.69
2022-10-04T14:30:18.503Z,44.78
2022-10-04T14:33:09.623Z,45.35
2022-10-04T14:35:54.337Z,44.36
2022-10-04T14:38:48.245Z,44.65
2022-10-04T14:41:33.640Z,44.52
2022-10-04T14:44:14.697Z,44.90
2022-10-04T14:46:49.965Z,43.68
2022-10-04T14:49:44.970Z,44.38
2022-10-04T14:52:38.174Z,45.67
2022-10-04T14:55:27.037Z,45.38
2022-10-04T14:58:24.243Z,46.61
2022-10-04T15:01:32.967Z,46.23
2022-10-04T15:04:27.257Z,46.80
2022-10-04T15:07:30.823Z,46.73
2022-10-04T15:10:19.370Z,47.09
2022-10-04T15:13:11.854Z,47.38
2022-10-04T15:16:15.725Z,47.73
2022-10-04T15:19:00.421Z,48.99
2022-10-04T15:21:33.696Z,48.29
2022-10-04T15:24:18.150Z,48.42
2022-10-04T15:27:18.507Z,48.69
2022-10-04T15:29:59.773Z,48.18
2022-10-04T15:32:44.492Z,49.04
2022-10-04T15:35:46.244Z,49.17
2022-10-04T15:38:35.578Z,49.25
2022-10-04T15:41:34.629Z,49.00
2022-10-04T15:44:15.139Z,48.96
2022-10-04T15:46:47.946Z,49.48
2022-10-04T15:49:27.854Z,49.23
2022-10-04T15:52:12.836Z,49.38
2022-10-04T15:54:51.938Z,50.20
2022-10-04T15:57:43.378Z,51.06
2022-10-04T16:00:10.042Z,51.52
2022-10-04T16:02:46.715Z,51.65
2022-10-04T16:05:50.839Z,52.81
2022-10-04T16:08:56.061Z,53.05
2022-10-04T16:11:48.114Z,53.57
2022-10-04T16:14:33.377Z,54.44
2022-10-04T16:17:02.839Z,55.17
2022-10-04T16:19:47.978Z,55.75
2022-10-04T16:22:19.436Z,56.50
2022-10-04T16:24:51.401Z,56.64
2022-10-04T16:27:56.121Z,57.05
2022-10-04T16:31:01.530Z,57.59
2022-10-04T16:33:44.690Z,58.01
2022-10-04T16:36:20.436Z,58.71
2022-10-04T16:39:10.815Z,59.25
2022-10-04T16:41:54.646Z,59.53
2022-10-04T16:44:47.878Z,60.07
2022-10-04T16:47:34.402Z,60.36
2022-10-04T16:50:04.753Z,60.77
2022-10-04T16:52:48.236Z,61.63
2022-10-04T16:55:44.007Z,61.72
2022-10-04T16:58:30.496Z,62.18
2022-10-04T17:01:28.738Z,62.95
2022-10-04T17:04:04.469Z,64.21
2022-10-04T17:06:53.090Z,64.46
2022-10-04T17:09:32.952Z,65.59
2022-10-04T17:12:20.226Z,65.40
2022-10-04T17:14:58.413Z,66.25
2022-10-04T17:17:53.474Z,66.78
2022-10-04T17:20:41.233Z,67.66
2022-10-04T17:23:42.129Z,68.59
2022-10-04T17:26:24.042Z,68.87
2022-10-04T17:29:06.333Z,69.97
2022-10-04T17:31:51.498Z,70.09
2022-10-04T17:34:36.149Z,70.99
2022-10-04T17:37:13.194Z,71.55
2022-10-04T17:39:44.691Z,71.91
2022-10-04T17:42:31.051Z,72.04
2022-10-04T17:45:20.586Z,72.29
2022-10-04T17:48:49.391Z,72.64
2022-10-04T17:52:02.432Z,73.29
2022-10-04T17:55:10.257Z,74.08
2022-10-04T17:57:51.039Z,74.94
2022-10-04T18:00:47.614Z,75.91
2022-10-04T18:03:40.523Z,75.92
2022-10-04T18:06:38.246Z,76.77
2022-10-04T18:09:27.530Z,77.13
2022-10-04T18:12:04.929Z,78.00
2022-10-04T18:14:37.960Z,78.74
2022-10-04T18:17:07.957Z,79.01
2022-10-04T18:19:56.602Z,79.93
2022-10-04T18:22:26.818Z,80.14
2022-10-04T18:25:23.403Z,77.98
2022-10-04T18:28:15.120Z,79.23
2022-10-04T18:30:54.143Z,80.57
2022-10-04T18:33:29.784Z,80.99
2022-10-04T18:36:19.204Z,80.55
2022-10-04T18:39:01.577Z,80.87
2022-10-04T18:41:49.197Z,81.34
2022-10-04T18:44:17.695Z,81.27
2022-10-04T18:46:48.113Z,81.44
2022-10-04T18:49:26.959Z,81.75
2022-10-04T18:52:02.933Z,81.87
2022-10-04T18:54:58.479Z,81.74
2022-10-04T18:58:02.262Z,81.79
2022-10-04T19:01:07.253Z,81.95
2022-10-04T19:03:47.174Z,82.04
2022-10-04T19:06:26.444Z,81.87
2022-10-04T19:09:06.526Z,81.44
2022-10-04T19:11:47.794Z,81.08
2022-10-04T19:14:43.693Z,80.55
2022-10-04T19:17:34.794Z,80.05
2022-10-04T19:20:21.764Z,79.61
2022-10-04T19:23:19.710Z,79.05
2022-10-04T19:26:17.589Z,78.38
2022-10-04T19:28:38.176Z,77.88
2022-10-04T19:31:31.773Z,78.28
2022-10-04T19:34:14.395Z,78.10
2022-10-04T19:36:55.843Z,77.98
2022-10-04T19:39:29.991Z,78.03
2022-10-04T19:42:15.151Z,77.65
2022-10-04T19:45:02.995Z,77.42
2022-10-04T19:47:50.119Z,77.11
2022-10-04T19:50:53.582Z,76.95
2022-10-04T19:53:35.160Z,76.92
2022-10-04T19:56:06.889Z,76.46
2022-10-04T19:58:44.312Z,76.50
2022-10-04T20:01:12.435Z,76.31
2022-10-04T20:03:39.714Z,76.38
2022-10-04T20:06:07.413Z,76.53
2022-10-04T20:08:53.439Z,76.38
2022-10-04T20:11:27.115Z,76.09
2022-10-04T20:14:16.805Z,76.34
2022-10-04T20:16:46.378Z,76.18
2022-10-04T20:19:21.466Z,76.65
2022-10-04T20:21:48.414Z,76.52
2022-10-04T20:24:41.612Z,76.83
2022-10-04T20:27:30.248Z,76.66
2022-10-04T20:29:58.898Z,76.28
2022-10-04T20:32:34.525Z,76.56
2022-10-04T20:35:04.176Z,76.48
2022-10-04T20:38:19.998Z,76.58
2022-10-04T20:40:45.282Z,76.23
2022-10-04T20:43:14.829Z,76.57
2022-10-04T20:45:54.829Z,76.51
2022-10-04T20:48:24.054Z,76.11
2022-10-04T20:50:52.197Z,75.91
2022-10-04T20:53:24.876Z,76.43
2022-10-04T20:56:07.969Z,75.93
2022-10-04T20:58:37.881Z,75.91
2022-10-04T21:01:39.219Z,75.95
2022-10-04T21:04:31.832Z,75.61
2022-10-04T21:07:01.185Z,74.94
2022-10-04T21:09:29.086Z,74.98
2022-10-04T21:11:57.001Z,74.77
2022-10-04T21:14:31.261Z,75.01
2022-10-04T21:17:03.408Z,74.60
2022-10-04T21:19:30.005Z,74.32
2022-10-04T21:21:57.196Z,74.20
2022-10-04T21:24:43.074Z,74.28
2022-10-04T21:27:35.500Z,74.26
2022-10-04T21:30:12.528Z,73.74
2022-10-04T21:32:38.974Z,73.42
2022-10-04T21:35:06.561Z,73.25
2022-10-04T21:37:33.303Z,73.16
2022-10-04T21:39:59.675Z,73.15
2022-10-04T21:42:26.235Z,72.92
2022-10-04T21:44:53.097Z,72.67
2022-10-04T21:47:22.905Z,72.78
2022-10-04T21:49:53.794Z,72.87
2022-10-04T21:52:20.240Z,72.66
2022-10-04T21:54:46.651Z,72.44
2022-10-04T21:57:13.570Z,72.34
2022-10-04T21:59:39.973Z,72.45
2022-10-04T22:02:07.776Z,72.62
2022-10-04T22:04:34.383Z,72.48
2022-10-04T22:07:00.898Z,72.33
2022-10-04T22:09:27.267Z,72.37
2022-10-04T22:11:53.610Z,72.15
2022-10-04T22:14:19.987Z,72.15
2022-10-04T22:16:46.604Z,72.29
2022-10-04T22:19:13.222Z,72.17
2022-10-04T22:21:39.662Z,72.01
2022-10-04T22:24:16.291Z,72.39
2022-10-04T22:26:42.769Z,71.68
2022-10-04T22:29:13.513Z,72.04
2022-10-04T22:31:43.932Z,71.23
2022-10-04T22:34:19.372Z,71.61
2022-10-04T22:36:47.371Z,71.56
2022-10-04T22:39:18.497Z,71.53
2022-10-04T22:41:56.217Z,71.52
2022-10-04T22:44:23.892Z,71.29
2022-10-04T22:46:59.761Z,70.96
2022-10-04T22:49:30.325Z,70.89
2022-10-04T22:51:59.021Z,70.72
2022-10-04T22:54:31.111Z,70.91
2022-10-04T22:56:58.248Z,70.71
2022-10-04T22:59:34.404Z,70.84
2022-10-04T23:02:07.622Z,70.96
2022-10-04T23:04:34.106Z,70.69
2022-10-04T23:07:00.648Z,70.76
2022-10-04T23:09:27.011Z,70.70
2022-10-04T23:11:53.420Z,70.50
2022-10-04T23:14:19.819Z,70.50
2022-10-04T23:16:46.365Z,70.41
2022-10-04T23:19:18.678Z,70.56
2022-10-04T23:21:47.302Z,70.10
2022-10-04T23:24:21.850Z,69.97
2022-10-04T23:26:56.307Z,70.12
2022-10-04T23:29:33.433Z,69.56
2022-10-04T23:32:08.837Z,69.32
2022-10-04T23:34:41.299Z,69.47
2022-10-04T23:37:16.344Z,69.10
2022-10-04T23:39:43.402Z,68.60
2022-10-04T23:42:18.615Z,68.98
2022-10-04T23:44:48.028Z,68.72
2022-10-04T23:47:17.678Z,68.71
2022-10-04T23:49:45.112Z,68.65
2022-10-04T23:52:24.995Z,69.30
2022-10-04T23:54:53.872Z,68.95
2022-10-04T23:57:24.707Z,68.92
2022-10-04T23:59:51.246Z,68.76
